Extreme weather reports worldwide

Atmospheric pressure

Low pressure

Station
 
Location
 
Name
 
Wind
Knots
Gust
Knots
Vis
SM
Temp/Dew
C
Baro
inHg
METAR
 
VVO UHWW Vladivostok, RU Vladivostok International Airport 16 4.97 13/9 29.20 UHWW 070930Z 16008MPS 8000 -SHRA BKN022CB 13/09 Q0989 R25L/19//65 NOSIG RMK QFE741
ADK PADK Adak Island, US Adak Airport 12 10 4/3 29.21 PADK 070930Z AUTO 05012KT 10SM OVC013 04/03 A2921 RMK AO2 WSHFT 0910
KAO EFKS Kuusamo, FI Kuusamo Airport 12 0.5 -3/-4 29.23 EFKS 070920Z AUTO 34012KT 0800 0700 R12/1200D -SN OVC009 M03/M04 Q0990 RESN
HRB ZYHB Harbin, CN Taiping Airport 12 6.21 13/10 29.26 ZYHB 070900Z 31006MPS 9999 -RA BKN023 13/10 Q0991 NOSIG
KHV UHHH Khabarovsk, RU Khabarovsk-Novy Airport 16 6.21 10/2 29.35 UHHH 070930Z 02008MPS 9999 SCT033CB 10/02 Q0994 R05L/090060 NOSIG RMK QFE739/0986

Station
 
Location
 
Name
 
Wind
Knots
Gust
Knots
Vis
SM
Temp/Dew
C
Baro
inHg
METAR
 
CGQ ZYCC Changchun, CN Longjia Airport 8 6.21 13/2 29.35 ZYCC 070900Z 27004MPS 210V320 9999 SCT026 13/02 Q0994 NOSIG
PAUT Akutan, US Akun Airport 4 10 4/-11 29.36 PAUT 070935Z AUTO 12004KT 10SM OVC006 04/M11 A2936 RMK AO2 T00411110 PWINO
DUT PADU Unalaska, US Unalaska Airport 8 10 5/1 29.36 PADU 070856Z AUTO 13008KT 10SM OVC019 05/02 A2936 RMK AO2 SLP947 T00500017 51002
RVN EFRO Rovaniemi, FI Rovaniemi Airport 8 0.93 -2/-4 29.38 EFRO 070950Z 35008KT 300V030 1500 R03/1300D -SN BKN007 M02/M04 Q0995 RESN
KAJ EFKI Kajaani, FI Kajaani Airport 15 3.11 -1/-2 29.38 EFKI 070920Z AUTO 27015KT 5000 -SN BKN006 OVC025 M01/M02 Q0995
YNY RKNY Gonghang-ro, KR Yangyang International Airport 29 40 3.73 19/1 29.38 RKNY 070900Z 27029G40KT 6000 FEW030 19/01 Q0995 NOSIG
KFP PAKF False Pass, US False Pass Airport 19 26 8 4/3 29.42 PAKF 070938Z AUTO 12019G26KT 8SM -RA BKN009 OVC012 04/03 A2942 RMK AO2 PK WND 12031/0906 CIG 008V011 P0005
STG PAPB St George, US St George Airport 22 9 3/2 29.42 PAPB 070853Z AUTO 07022KT 9SM BKN008 OVC014 03/02 A2942 RMK AO2 PK WND 08030/0827 RAE32 CIG 007V011 SLP950 P0000 60005 T00330022 400500022 57001 TSNO
CDB PACD Cold Bay, US Cold Bay Airport 18 25 10 4/2 29.42 PACD 070853Z AUTO 13018G25KT 10SM -RA OVC025 04/03 A2942 RMK AO2 PK WND 13027/0804 RAB0756 SLP964 P0002 60003 T00440028 400560033 58013 TSNO
OUL EFOU Oulu / Oulunsalo, FI Oulu Airport 15 2.49 0/-1 29.44 EFOU 070950Z AUTO 33015KT 4000 -SN OVC008 00/M01 Q0997
BQS UHBB Blagoveschensk, RU Ignatyevo Airport 16 6.21 12/0 29.44 UHBB 070930Z 07008MPS 9999 SCT033CB 12/M00 Q0997 R36/090060 NOSIG RMK QFE730/0974
KEM EFKE Kemi / Tornio, FI Kemi-Tornio Airport 12 1.37 0/-1 29.44 EFKE 070920Z AUTO 34012KT 2200 -SN OVC007 M00/M01 Q0997
KVC PAVC King Cove, US King Cove Airport 22 34 8 4/3 29.46 PAVC 070914Z AUTO 06022G34KT 8SM -RA SCT010 OVC015 04/03 A2946 RMK AO2 PK WND 06034/0909 PNO $
ARH ULAA Archangelsk, RU Talagi Airport 14 6.21 12/1 29.47 ULAA 070930Z 21007MPS 170V250 9999 BKN028CB 12/01 Q0998 R08/CLRD70 NOSIG RMK QFE748/0997
KUO EFKU Kuopio / Siilinjärvi, FI Kuopio Airport 7 4.97 1/-2 29.47 EFKU 070920Z 25007KT 8000 OVC022 01/M02 Q0998
KTT EFKT Kittilä, FI Kittilä Airport 7 0.56 -2/-4 29.47 EFKT 070920Z AUTO 04007KT 0900 R34/1500U SHSN OVC013 M02/M04 Q0998 RESN
JYV EFJY Jyväskylän Maalaiskunta, FI Jyvaskyla Airport 8 6.21 5/-5 29.47 EFJY 070920Z 31008KT 270V340 9999 BKN043 05/M05 Q0998
JOE EFJO Joensuu / Liperi, FI Joensuu Airport 7 6.21 0/-2 29.47 EFJO 070920Z AUTO 24007KT 210V270 9999 OVC011 00/M02 Q0998
KEV EFHA Halli / Kuorevesi, FI Halli Airport 4 6.21 5/-4 29.47 EFHA 070920Z 25004KT 210V290 9999 BKN040 05/M04 Q0998
TNM SCRM Isla Rey Jorge, AQ Teniente Rodolfo Marsh Martin Base 17 0.31 0/0 29.47 SCRM 070900Z 28017KT 0500 FG VV002 00/00 Q0998 NOSIG
KQEY 4 1.99 14/3 29.49 KQEY 070940Z AUTO 25004KT 3200 HZ OVC030 14/03 A2949 RMK A02 TSNO
TKU EFTU Turku, FI Turku Airport 3 6.21 4/4 29.50 EFTU 070950Z AUTO 02003KT 350V070 9999 BKN007 OVC014 04/04 Q0999
IVL EFIV Ivalo, FI Ivalo Airport 13 1.74 -2/-3 29.50 EFIV 070950Z AUTO 03013KT 2800 -SN OVC009 M02/M03 Q0999
KJA UNKL Krasnoyarsk, RU Yemelyanovo Airport 17 29 6.21 24/5 29.50 UNKL 070930Z 26009G15MPS 9999 SCT049 24/05 Q0999 R29/CLRD65 TEMPO 28011G18MPS RMK QFE724
PJA ESUP SE Pajala Airport 9 1.49 -1/-3 29.50 ESUP 070920Z AUTO 35009KT 2400 -SN FEW007/// SCT027/// M01/M03 Q0999
LLA ESPA Luleå, SE Luleå Airport 14 6.21 3/-4 29.50 ESPA 070920Z 34014KT 9999 BKN035 03/M04 Q0999
UTI EFUT Utti / Valkeala, FI Utti Air Base 3 6.21 6/-2 29.50 EFUT 070920Z 32003KT 9999 BKN031 06/M02 Q0999
SVL EFSA Savonlinna, FI Savonlinna Airport 7 6.21 3/-2 29.50 EFSA 070920Z AUTO 27007KT 230V300 9999 BKN022 03/M02 Q0999
LPP EFLP Lappeenranta, FI Lappeenranta Airport 3 6.21 6/0 29.50 EFLP 070920Z AUTO VRB03KT 9999 OVC022 06/M00 Q0999
NLG PAOU Nelson Lagoon, US Nelson Lagoon Airport 20 27 10 5/1 29.51 PAOU 070856Z AUTO 18020G27KT 10SM CLR 05/02 A2951 RMK AO2 PK WND 19027/0850 SLP993 6//// T00500017 400670039 58009 PNO $
AJR ESNX Arvidsjaur, SE Arvidsjaur Airport 9 6.21 2/-6 29.53 ESNX 070950Z 30009KT 9999 -SHSN SCT037 02/M06 Q1000
TMP EFTP Tampere / Pirkkala, FI Tampere-Pirkkala Airport 3 6.21 2/1 29.53 EFTP 070950Z 34003KT 9999 -SNRA FEW004 BKN013 02/01 Q1000
MHQ EFMA FI Mariehamn Airport 9 4.97 3/2 29.53 EFMA 070950Z AUTO 36009KT 8000 -RA OVC006 03/02 Q1000
HEL EFHK Helsinki, FI Helsinki Vantaa Airport 8 6.21 5/3 29.53 EFHK 070950Z 17008KT 9999 SCT012 BKN014 05/03 Q1000 BECMG BKN015
TLL EETN Tallinn, EE Lennart Meri Tallinn Airport 5 5.59 6/5 29.53 EETN 070950Z 33005KT 300V360 9000 -SHRA SCT008 BKN017CB BKN032 06/05 Q1000 RESHRA TEMPO 4000 SHRA
SHE ZYTX Shenyang, CN Taoxian Airport 2 6.21 17/7 29.53 ZYTX 070930Z VRB01MPS CAVOK 17/07 Q1000 NOSIG
PEK ZBAA Beijing, CN Beijing Capital International Airport 16 6.21 26/-2 29.53 ZBAA 070930Z 21008MPS CAVOK 26/M02 Q1000 NOSIG
NSK UOOO Norilsk, RU Norilsk-Alykel Airport 17 6.21 2/1 29.53 UOOO 070930Z 12009MPS 9999 BKN038 02/01 Q1000 R01/29//50 NOSIG RMK QFE736/0981
PES ULPB Petrozavodsk, RU Petrozavodsk Airport 14 6.21 5/2 29.53 ULPB 070930Z 21007MPS 9999 OVC017 05/02 Q1000 R19/09//60 NOSIG RMK QFE746/0995
MMK ULMM Murmansk, RU Murmansk Airport 16 1.8 0/-2 29.53 ULMM 070930Z 07008MPS 2900 -SHSN BKN011CB M00/M02 Q1000 R13/290155 TEMPO 1000 SHSN RMK QFE743
SFT ESNS Skellefteå, SE Skellefteå Airport 9 6.21 3/-5 29.53 ESNS 070920Z 35009KT 300V030 9999 VCSH SCT028TCU BKN035 03/M05 Q1000
KRN ESNQ Kiruna, SE Kiruna Airport 15 6.21 -2/-6 29.53 ESNQ 070920Z 03015KT 9999 BKN020 M02/M06 Q1000
GEV ESNG Gällivare, SE Gällivare Airport 10 6.21 0/-7 29.53 ESNG 070920Z 35010KT 320V030 9999 SCT027 OVC037 00/M07 Q1000
SJY EFSI Seinäjoki / Ilmajoki, FI Seinäjoki Airport 7 6.21 3/-6 29.53 EFSI 070920Z AUTO 32007KT 280V010 9999 BKN041 03/M06 Q1000
POR EFPO Pori, FI Pori Airport 3 6.21 4/1 29.53 EFPO 070920Z AUTO 26003KT 230V290 9999 -RA BKN023 04/01 Q1000

High pressure

Station
 
Location
 
Name
 
Wind
Knots
Gust
Knots
Vis
SM
Temp/Dew
C
Baro
inHg
METAR
 
KQBR 2 10 17/0 31.57 KQBR 070855Z AUTO 28002KT 10SM FEW160 18/00 A3157 RMK AO2 SLP537 WND DATA ESTMD T01770001 58008
KMYP 15 10 / 30.58 KMYP 070935Z AUTO 25015KT 10SM CLR A3058 RMK AO2 TSNO
KCPW 13 19 10 3/-7 30.53 KCPW 070935Z AUTO 22013G19KT 10SM SCT100 03/M07 A3053 RMK AO2
WLG NZWN Wellington, NZ Wellington International Airport 6 6.21 12/11 30.50 NZWN 070930Z AUTO 01006KT 9999 NCD 12/11 Q1033 NOSIG
KCCU 12 15 10 7/-11 30.48 KCCU 070935Z AUTO 24012G15KT 10SM CLR 07/M11 A3048 RMK AO2

Station
 
Location
 
Name
 
Wind
Knots
Gust
Knots
Vis
SM
Temp/Dew
C
Baro
inHg
METAR
 
AKL NZAA Auckland, NZ Auckland International Airport 9 6.21 17/12 30.47 NZAA 070930Z AUTO 07009KT 9999 FEW041/// 17/12 Q1032 NOSIG
K0CO 23 27 10 1/-5 30.46 K0CO 070935Z AUTO 29023G27KT 10SM CLR 01/M05 A3046 RMK AO2
CHC NZCH Christchurch, NZ Christchurch International Airport 12 6.21 13/11 30.44 NZCH 070930Z AUTO 08012KT 9999 OVC013/// 13/11 Q1031 NOSIG
K4BM 10 16 10 6/-14 30.44 K4BM 070935Z AUTO 20010G16KT 10SM CLR 06/M14 A3044 RMK AO2
TLC MMTO Toluca, MX Licenciado Adolfo Lopez Mateos International Airport 0 6 8/5 30.42 MMTO 070849Z 00000KT 6SM SCT200 08/05 A3042 RMK SLP103 57004 901 8/001 HZY
CWIL 6 -8/-8 30.42 CWIL 070900Z AUTO 23006KT ////SM ////// M08/M08 A3042
K5SM 8 10 5/-11 30.42 K5SM 070935Z AUTO 22008KT 10SM 05/M11 A3042 RMK AO2
LTX SELT Latacunga, EC Cotopaxi International Airport 5 6.21 8/7 30.41 SELT 070900Z 08005KT 9999 FEW013 SCT030 08/07 Q1030
YCB CYCB Cambridge Bay, CA Cambridge Bay Airport 0 10 -7/-9 30.40 CYCB 070900Z 00000KT 10SM BKN006 OVC015 M07/M09 A3040 RMK SC6SC2 SLP300
MEX MMMX Mexico City, MX Licenciado Benito Juarez International Airport 10 10 15/8 30.39 MMMX 070847Z 32010KT 10SM SCT020 BKN080 15/08 A3039 NOSIG RMK SLP106 57017 954 8/570 HZY
KC07 3 10 6/-11 30.39 KC07 070935Z AUTO 28003KT 10SM CLR 06/M11 A3039 RMK AO2
FAVV Vereeniging, ZA Vereeniging Airport 7 20/9 30.38 FAVV 070900Z AUTO 31007KT //// // ////// 20/09 Q1029
WDH FYWH Windhoek, NA Hosea Kutako International Airport 6 6.21 19/11 30.38 FYWH 070900Z 06006KT 9999 FEW050 19/11 Q1029 NOSIG
YHK CYHK Gjoa Haven, CA Gjoa Haven Airport 11 16 1.25 -7/-7 30.38 CYHK 070944Z AUTO 29011G16KT 1 1/4SM BR OVC003 M07/M07 A3038 RMK ICG SLP295
QRO MMQT Querétaro, MX Querétaro Intercontinental Airport 8 7 15/10 30.37 MMQT 070840Z 07008KT 7SM SKC 15/10 A3037
YSF CYSF Stony Rapids, CA Stony Rapids Airport 2 9 -5/-7 30.37 CYSF 070900Z AUTO 14002KT 9SM CLR M05/M07 A3037 RMK SLP302
KC99 7 17 10 5/-15 30.37 KC99 070935Z AUTO 29007G17KT 10SM CLR 05/M15 A3037 RMK AO2
KVTP 6 10 6/-7 30.37 KVTP 070935Z AUTO 26006KT 10SM CLR 06/M07 A3037 RMK AO2
CYUS 9 -9/-10 30.37 CYUS 070949Z AUTO 29009KT ////SM //// OVC003 M09/M10 A3037
LXV KLXV Leadville, US Lake County Airport 4 10 -1/-10 30.36 KLXV 070853Z AUTO 06004KT 10SM CLR M01/M11 A3036 RMK AO2 SLP157 T10111106 58010
CPIN 3 -7/-7 30.36 CPIN 070900Z AUTO 12003KT 070V160 ////SM OVC007 M07/M07 A3036
YBK CYBK Baker Lake, CA Baker Lake Airport 11 20 -5/-6 30.36 CYBK 070900Z 35011KT 20SM SCT006 M05/M06 A3036 RMK ST3 SLP284
WKF FAWK Pretoria, ZA Waterkloof Air Force Base 8 19/10 30.35 FAWK 070900Z AUTO 36008KT //// // ////// 19/10 Q1028
ERS FYWE Windhoek, NA Eros Airport 5 6.21 20/9 30.35 FYWE 070900Z 36005KT 320V030 CAVOK 20/09 Q1028
JNB FAOR Johannesburg, ZA OR Tambo International Airport 10 6.21 18/9 30.35 FAOR 070930Z 32010KT 290V350 CAVOK 18/09 Q1028 NOSIG
HLA FALA Johannesburg, ZA Lanseria Airport 6 6.21 20/9 30.35 FALA 070936Z 32006KT 260V020 9999 FEW030 20/09 Q1028 NOSIG
K7BM 0 10 10/-13 30.35 K7BM 070935Z AUTO 00000KT 10SM CLR 10/M13 A3035 RMK AO2
AXX KAXX Angel Fire, US Angel Fire Airport 0 10 -1/-2 30.35 KAXX 070935Z AUTO 00000KT 10SM SCT100 M01/M02 A3035 RMK AO2 T10101020
BRW PABR Utqiaġvik, US Wiley Post Will Rogers Memorial Airport 7 0.25 -9/-11 30.34 PABR 070853Z AUTO 08007KT 1/4SM R07/1600V4000FT FZFG VV003 M09/M12 A3034 RMK AO2 SLP276 I3000 T10941117 410941167 56002 TSNO
BSF PHSF Camp Pohakuloa, US Bradshaw Army Airfield 8 10 13/9 30.34 PHSF 070858Z AUTO 12008KT 10SM OVC110 13/09 A3034 RMK AO2 SLP157 T01340093 $
CWXR 6 -7/-8 30.34 CWXR 070900Z AUTO 29006KT ////SM OVC014 M07/M08 A3034
YYL CYYL Lynn Lake, CA Lynn Lake Airport 4 9 -4/-5 30.34 CYYL 070900Z AUTO 32004KT 9SM CLR M04/M05 A3034 RMK SLP299
BJX MMLO Silao, MX Del Bajío International Airport 6 8 17/10 30.34 MMLO 070908Z RTD 07006KT 8SM SCT220 17/10 A3034 RMK SLP112 5//// 903 8/002 RTS
YCO CYCO Kugluktuk, CA Kugluktuk Airport 4 4 -6/-7 30.34 CYCO 070918Z 29004KT 4SM -SN BR OVC004 M06/M07 A3034 RMK ST8 VIS E-1 SLP279
YYH CYYH Taloyoak, CA Taloyoak Airport 9 1 -7/-8 30.34 CYYH 070927Z CCA 25009KT 1SM BR VV003 M07/M08 A3034 RMK FG8 VIS W 3 SLP280
SLT KANK Salida, US Salida Airport Harriett Alexander Field 3 10 6/-3 30.34 KANK 070935Z AUTO 28003KT 10SM CLR 06/M04 A3034 RMK AO1 T00621037
CBAR 12 -7/-8 30.33 CBAR 070900Z AUTO 07012KT ////SM OVC018 M07/M08 A3033
TEX KTEX Telluride, US Telluride Regional Airport 6 10 8/-7 30.33 KTEX 070935Z AUTO 15006KT 10SM CLR 08/M07 A3033 RMK AO2
MQP FAKN Mpumalanga, ZA Kruger Mpumalanga International Airport 4 19/13 30.32 FAKN 070900Z AUTO 02004KT //// // ////// 19/13 Q1027
MBD FAMM Mafeking, ZA Mmabatho International Airport 5 20/10 30.32 FAMM 070900Z AUTO 36005KT //// // ////// 20/10 Q1027
PTG FAPP Polokwane, ZA Polokwane International Airport 5 6.21 18/10 30.32 FAPP 070900Z 03005KT 9999 FEW025 18/10 Q1027 NOSIG
GOG FYGB Gobabis, NA Gobabis Airport 7 23/7 30.32 FYGB 070900Z AUTO 06007KT //// // ////// 23/07 Q1027
FYWW 2 20/10 30.32 FYWW 070900Z AUTO 33002KT //// // ////// 20/10 Q1027
CUE SECU Cuenca, EC Mariscal Lamar Airport 5 12/12 30.32 SECU 070900Z AUTO 24005KT 220V280 ////NDV NCD 12/12 Q1027
BOG SKBO Bogota, CO El Dorado International Airport 3 6.21 12/10 30.32 SKBO 070900Z 36003KT 9999 FEW017 SCT070 12/10 Q1027 NOSIG RMKA3033